createdAt,value
2022-09-15T00:00:21.791Z,547.4
2022-09-15T00:01:23.751Z,547.5
2022-09-15T00:02:26.109Z,547.3
2022-09-15T00:03:27.926Z,546.8
2022-09-15T00:04:29.565Z,546.6
2022-09-15T00:05:31.541Z,546.6
2022-09-15T00:06:33.371Z,546.6
2022-09-15T00:07:34.983Z,546.8
2022-09-15T00:08:36.537Z,546.9
2022-09-15T00:09:38.091Z,547.4
2022-09-15T00:10:39.865Z,547.1
2022-09-15T00:11:41.493Z,547.3
2022-09-15T00:12:43.144Z,547.3
2022-09-15T00:13:45.342Z,547.1
2022-09-15T00:14:47.025Z,547.1
2022-09-15T00:15:48.625Z,547.2
2022-09-15T00:16:50.693Z,546.9
2022-09-15T00:17:52.375Z,547
2022-09-15T00:18:54.137Z,546.6
2022-09-15T00:19:55.803Z,546.7
2022-09-15T00:20:57.752Z,547.4
2022-09-15T00:21:59.292Z,547.3
2022-09-15T00:23:00.941Z,547.2
2022-09-15T00:24:02.504Z,547.5
2022-09-15T00:25:04.057Z,547.3
2022-09-15T00:26:05.699Z,546.9
2022-09-15T00:27:07.335Z,546.8
2022-09-15T00:28:08.879Z,546.4
2022-09-15T00:29:10.487Z,546.3
2022-09-15T00:30:12.032Z,546.1
2022-09-15T00:31:14.155Z,546.3
2022-09-15T00:32:15.938Z,546.4
2022-09-15T00:33:17.475Z,546.6
2022-09-15T00:34:19.126Z,546.6
2022-09-15T00:35:20.693Z,546.4
2022-09-15T00:36:22.535Z,546.2
2022-09-15T00:37:24.295Z,546.2
2022-09-15T00:38:25.847Z,546.4
2022-09-15T00:39:27.378Z,547.1
2022-09-15T00:40:29.363Z,546.9
2022-09-15T00:41:31.035Z,546.8
2022-09-15T00:42:32.839Z,547.2
2022-09-15T00:43:34.378Z,547.2
2022-09-15T00:44:35.986Z,546.9
2022-09-15T00:45:38.068Z,547
2022-09-15T00:46:39.782Z,547
2022-09-15T00:47:41.470Z,546.8
2022-09-15T00:48:43.036Z,547.2
2022-09-15T00:49:44.718Z,547.1
2022-09-15T00:50:46.281Z,547.3
2022-09-15T00:51:48.316Z,546.6
2022-09-15T00:52:49.882Z,546.7
2022-09-15T00:53:52.265Z,546.5
2022-09-15T00:54:54.113Z,546.6
2022-09-15T00:55:55.762Z,546.1
2022-09-15T00:56:57.394Z,545.9
2022-09-15T00:57:58.994Z,545.9
2022-09-15T00:59:00.558Z,545.6
2022-09-15T01:00:02.257Z,545.7
2022-09-15T01:01:04.236Z,545.9
2022-09-15T01:02:06.390Z,545.9
2022-09-15T01:03:08.161Z,546.1
2022-09-15T01:04:09.805Z,546.6
2022-09-15T01:05:11.453Z,546.4
2022-09-15T01:06:13.130Z,546.6
2022-09-15T01:07:14.955Z,547.2
2022-09-15T01:08:16.631Z,547.2
2022-09-15T01:09:18.664Z,547
2022-09-15T01:10:20.288Z,547.2
2022-09-15T01:11:21.964Z,546.9
2022-09-15T01:12:23.490Z,546.7
2022-09-15T01:13:25.037Z,546.6
2022-09-15T01:14:26.598Z,546.6
2022-09-15T01:15:28.128Z,546.3
2022-09-15T01:16:30.283Z,546.4
2022-09-15T01:17:31.956Z,546.5
2022-09-15T01:18:33.557Z,546.9
2022-09-15T01:19:35.341Z,546.8
2022-09-15T01:20:36.945Z,546.7
2022-09-15T01:21:38.616Z,546.6
2022-09-15T01:22:40.461Z,546.5
2022-09-15T01:23:42.206Z,546.2
2022-09-15T01:24:43.936Z,546.6
2022-09-15T01:25:45.629Z,547.1
2022-09-15T01:26:47.258Z,547.1
2022-09-15T01:27:48.907Z,547.4
2022-09-15T01:28:50.555Z,547.4
2022-09-15T01:29:52.098Z,547.8
2022-09-15T01:30:53.750Z,547.5
2022-09-15T01:31:55.561Z,547.2
2022-09-15T01:32:57.172Z,547.1
2022-09-15T01:33:58.703Z,547.1
2022-09-15T01:35:00.284Z,547.3
2022-09-15T01:36:02.130Z,547.8
2022-09-15T01:37:03.713Z,547.4
2022-09-15T01:38:05.443Z,546.7
2022-09-15T01:39:07.002Z,547
2022-09-15T01:40:08.947Z,547.5
2022-09-15T01:41:10.709Z,547.8
2022-09-15T01:42:12.251Z,547.7
2022-09-15T01:43:13.978Z,547.5
2022-09-15T01:44:15.589Z,547.4
2022-09-15T01:45:17.138Z,547.1
2022-09-15T01:46:19.305Z,547.3
2022-09-15T01:47:20.847Z,547.1
2022-09-15T01:48:22.545Z,547.2
2022-09-15T01:49:24.118Z,546.9
2022-09-15T01:50:25.707Z,546.5
2022-09-15T01:51:27.439Z,546.4
2022-09-15T01:52:29.201Z,546.2
2022-09-15T01:53:30.938Z,546.6
2022-09-15T01:54:32.484Z,546.7
2022-09-15T01:55:34.135Z,546.9
2022-09-15T01:56:35.875Z,547.4
2022-09-15T01:57:37.536Z,547.8
2022-09-15T01:58:39.184Z,547.5
2022-09-15T01:59:40.784Z,547.3
2022-09-15T02:00:42.785Z,547.3
2022-09-15T02:01:45.171Z,547.3
2022-09-15T02:02:46.888Z,547.1
2022-09-15T02:03:48.510Z,547
2022-09-15T02:04:50.177Z,547
2022-09-15T02:05:51.915Z,547.2
2022-09-15T02:06:53.640Z,547.4
2022-09-15T02:07:55.310Z,547
2022-09-15T02:08:57.134Z,548.1
2022-09-15T02:09:58.820Z,548.4
2022-09-15T02:11:00.455Z,548
2022-09-15T02:12:01.989Z,548
2022-09-15T02:13:03.645Z,548.4
2022-09-15T02:14:05.301Z,548.4
2022-09-15T02:15:06.936Z,548.5
2022-09-15T02:16:08.768Z,548.6
2022-09-15T02:17:10.601Z,548.6
2022-09-15T02:18:12.287Z,548.5
2022-09-15T02:19:13.911Z,548.5
2022-09-15T02:20:15.463Z,548.7
2022-09-15T02:21:17.279Z,548.5
2022-09-15T02:22:19.038Z,548.9
2022-09-15T02:23:20.594Z,548.9
2022-09-15T02:24:22.353Z,548.7
2022-09-15T02:25:23.976Z,548.8
2022-09-15T02:26:25.509Z,548.6
2022-09-15T02:27:27.202Z,548.9
2022-09-15T02:28:28.847Z,548.9
2022-09-15T02:29:30.569Z,548.8
2022-09-15T02:30:32.194Z,548.9
2022-09-15T02:31:34.118Z,549.1
2022-09-15T02:32:35.830Z,549
2022-09-15T02:33:37.471Z,549.1
2022-09-15T02:34:39.184Z,548.7
2022-09-15T02:35:40.861Z,548.6
2022-09-15T02:36:42.411Z,548.7
2022-09-15T02:37:44.242Z,549.1
2022-09-15T02:38:45.929Z,549
2022-09-15T02:39:47.963Z,549.5
2022-09-15T02:40:49.610Z,549.8
2022-09-15T02:41:51.217Z,549.6
2022-09-15T02:42:52.965Z,549.6
2022-09-15T02:43:54.609Z,549.9
2022-09-15T02:44:56.236Z,549.6
2022-09-15T02:45:58.126Z,549.5
2022-09-15T02:46:59.784Z,549.7
2022-09-15T02:48:01.430Z,549.5
2022-09-15T02:49:03.070Z,549.4
2022-09-15T02:50:04.654Z,549.5
2022-09-15T02:51:06.270Z,550.2
2022-09-15T02:52:07.798Z,549.5
2022-09-15T02:53:09.412Z,549.2
2022-09-15T02:54:11.129Z,548.9
2022-09-15T02:55:13.034Z,549
2022-09-15T02:56:14.585Z,548.5
2022-09-15T02:57:16.246Z,548.6
2022-09-15T02:58:17.889Z,548.9
2022-09-15T02:59:19.517Z,549
2022-09-15T03:00:21.175Z,549.2
2022-09-15T03:01:23.233Z,549.3
2022-09-15T03:02:25.592Z,548.9
2022-09-15T03:03:27.304Z,548.9
2022-09-15T03:04:28.844Z,548.9
2022-09-15T03:05:30.458Z,549
2022-09-15T03:06:32.078Z,548.8
2022-09-15T03:07:33.817Z,548.8
2022-09-15T03:08:35.397Z,548.8
2022-09-15T03:09:37.018Z,549.2
2022-09-15T03:10:38.888Z,549.2
2022-09-15T03:11:40.604Z,549.2
2022-09-15T03:12:42.441Z,549
2022-09-15T03:13:44.042Z,549.2
2022-09-15T03:14:45.590Z,549.3
2022-09-15T03:15:47.187Z,548.7
2022-09-15T03:16:48.983Z,548.6
2022-09-15T03:17:50.739Z,548.8
2022-09-15T03:18:52.383Z,548.5
2022-09-15T03:19:54.031Z,548
2022-09-15T03:20:55.622Z,547.7
2022-09-15T03:21:57.262Z,547.7
2022-09-15T03:22:58.994Z,547.3
2022-09-15T03:24:00.713Z,547.7
2022-09-15T03:25:02.284Z,547.7
2022-09-15T03:26:04.106Z,547
2022-09-15T03:27:05.684Z,547.1
2022-09-15T03:28:07.425Z,546.9
2022-09-15T03:29:11.938Z,546.8
2022-09-15T03:30:13.496Z,547.1
2022-09-15T03:31:15.314Z,546.8
2022-09-15T03:32:17.012Z,546.8
2022-09-15T03:33:19.152Z,546.8
2022-09-15T03:34:20.687Z,546.5
2022-09-15T03:35:22.220Z,546.7
2022-09-15T03:36:23.757Z,546.4
2022-09-15T03:37:25.422Z,547.1
2022-09-15T03:38:26.963Z,547.1
2022-09-15T03:39:28.671Z,546.7
2022-09-15T03:40:30.720Z,546.7
2022-09-15T03:41:32.493Z,546.5
2022-09-15T03:42:34.034Z,546.6
2022-09-15T03:43:35.577Z,546.4
2022-09-15T03:44:37.427Z,546.5
2022-09-15T03:45:39.489Z,546.5
2022-09-15T03:46:41.214Z,546.7
2022-09-15T03:47:42.840Z,546.7
2022-09-15T03:48:44.521Z,546.7
2022-09-15T03:49:46.295Z,546.4
2022-09-15T03:50:47.910Z,546.5
2022-09-15T03:51:49.443Z,546.5
2022-09-15T03:52:58.856Z,546.7
2022-09-15T03:54:00.501Z,546.5
2022-09-15T03:55:02.303Z,546.8
2022-09-15T03:56:06.590Z,547.1
2022-09-15T03:57:08.305Z,547.2
2022-09-15T03:58:09.962Z,547
2022-09-15T03:59:11.601Z,547.3
2022-09-15T04:00:13.373Z,547.3
2022-09-15T04:01:15.462Z,547.3
2022-09-15T04:02:17.604Z,547.4
2022-09-15T04:03:19.192Z,547.3
2022-09-15T04:04:20.873Z,547.3
2022-09-15T04:05:22.544Z,547.5
2022-09-15T04:06:24.186Z,547.4
2022-09-15T04:07:25.819Z,547.2
2022-09-15T04:08:27.370Z,546.9
2022-09-15T04:09:29.093Z,546.4
2022-09-15T04:10:30.723Z,546.7
2022-09-15T04:11:32.653Z,546.5
2022-09-15T04:12:34.445Z,546.1
2022-09-15T04:13:35.983Z,546.3
2022-09-15T04:14:37.559Z,546.8
2022-09-15T04:15:39.187Z,546.7
2022-09-15T04:16:41.504Z,546.9
2022-09-15T04:17:43.180Z,546.9
2022-09-15T04:18:44.730Z,547
2022-09-15T04:19:46.383Z,547.1
2022-09-15T04:20:47.998Z,547
2022-09-15T04:21:49.844Z,547.4
2022-09-15T04:22:51.407Z,547.3
2022-09-15T04:23:53.459Z,547.8
2022-09-15T04:24:55.070Z,547.5
2022-09-15T04:25:56.733Z,547.7
2022-09-15T04:26:58.603Z,548
2022-09-15T04:28:00.345Z,548.3
2022-09-15T04:29:05.454Z,548.1
2022-09-15T04:30:07.139Z,548.2
2022-09-15T04:31:11.938Z,548.2
2022-09-15T04:32:13.699Z,548.4
2022-09-15T04:33:15.353Z,548.5
2022-09-15T04:34:16.997Z,548.7
2022-09-15T04:35:18.494Z,548.5
2022-09-15T04:36:20.044Z,548.3
2022-09-15T04:37:21.725Z,548.5
2022-09-15T04:38:23.267Z,548.2
2022-09-15T04:39:24.851Z,548.3
2022-09-15T04:40:26.769Z,547.9
2022-09-15T04:41:28.585Z,547.8
2022-09-15T04:42:30.277Z,548
2022-09-15T04:43:31.994Z,547.9
2022-09-15T04:44:33.532Z,547.8
2022-09-15T04:45:37.823Z,547.4
2022-09-15T04:46:39.931Z,547.4
2022-09-15T04:47:41.636Z,547.1
2022-09-15T04:48:43.461Z,547.1
2022-09-15T04:49:45.125Z,547.2
2022-09-15T04:50:46.680Z,547.3
2022-09-15T04:51:48.228Z,547.2
2022-09-15T04:52:49.953Z,547.3
2022-09-15T04:53:52.512Z,547.7
2022-09-15T04:54:54.149Z,547.6
2022-09-15T04:55:55.706Z,547.7
2022-09-15T04:56:57.364Z,547.6
2022-09-15T04:57:59.082Z,547
2022-09-15T04:59:04.724Z,547.1
2022-09-15T05:00:06.414Z,547
2022-09-15T05:01:08.682Z,546.6
2022-09-15T05:02:10.766Z,546.5
2022-09-15T05:03:12.561Z,546.4
2022-09-15T05:04:14.226Z,546.1
2022-09-15T05:05:15.871Z,546.4
2022-09-15T05:06:17.490Z,546.9
2022-09-15T05:07:19.160Z,546.7
2022-09-15T05:08:20.875Z,547
2022-09-15T05:09:22.555Z,546.8
2022-09-15T05:10:24.214Z,547.2
2022-09-15T05:11:25.902Z,547.3
2022-09-15T05:12:27.557Z,547.4
2022-09-15T05:13:29.121Z,547.4
2022-09-15T05:14:30.967Z,547.5
2022-09-15T05:15:32.509Z,547.3
2022-09-15T05:16:34.619Z,547.1
2022-09-15T05:17:36.329Z,547.3
2022-09-15T05:18:37.968Z,547.5
2022-09-15T05:19:39.487Z,547.5
2022-09-15T05:20:41.233Z,547.7
2022-09-15T05:21:43.002Z,548.2
2022-09-15T05:22:44.538Z,548.3
2022-09-15T05:23:46.376Z,548.3
2022-09-15T05:24:48.053Z,548.3
2022-09-15T05:25:49.690Z,548.4
2022-09-15T05:26:51.431Z,548.6
2022-09-15T05:27:53.157Z,548.5
2022-09-15T05:28:57.391Z,548.6
2022-09-15T05:30:44.505Z,548.9
2022-09-15T05:31:46.850Z,549.3
2022-09-15T05:32:48.466Z,548.9
2022-09-15T05:33:50.019Z,548.9
2022-09-15T05:34:51.694Z,548.4
2022-09-15T05:35:53.237Z,548.6
2022-09-15T05:36:54.896Z,548.5
2022-09-15T05:37:56.433Z,549.2
2022-09-15T05:38:58.253Z,548.9
2022-09-15T05:40:00.289Z,549.3
2022-09-15T05:41:02.158Z,549.5
2022-09-15T05:42:03.835Z,549.5
2022-09-15T05:43:05.550Z,549.8
2022-09-15T05:44:07.225Z,550.1
2022-09-15T05:45:08.874Z,550.1
2022-09-15T05:46:11.047Z,550.2
2022-09-15T05:47:12.749Z,549.9
2022-09-15T05:48:14.420Z,550.2
2022-09-15T05:49:15.967Z,550
2022-09-15T05:50:17.632Z,550.2
2022-09-15T05:51:19.167Z,550.8
2022-09-15T05:52:20.970Z,550.4
2022-09-15T05:53:22.660Z,550.6
2022-09-15T05:54:24.298Z,550.1
2022-09-15T05:55:25.910Z,550.9
2022-09-15T05:56:27.485Z,551.3
2022-09-15T05:57:29.209Z,551.2
2022-09-15T05:58:30.944Z,550.9
2022-09-15T05:59:32.501Z,551.1
2022-09-15T06:00:34.446Z,551
2022-09-15T06:01:36.524Z,551.3
2022-09-15T06:02:41.405Z,551.6
2022-09-15T06:03:43.102Z,552
2022-09-15T06:04:44.744Z,551.8
2022-09-15T06:05:46.271Z,552.1
2022-09-15T06:06:47.812Z,552.6
2022-09-15T06:07:49.371Z,552.8
2022-09-15T06:09:00.048Z,552.6
2022-09-15T06:10:01.945Z,552.5
2022-09-15T06:11:04.438Z,551.8
2022-09-15T06:12:05.998Z,552
2022-09-15T06:13:07.574Z,552
2022-09-15T06:14:09.212Z,551.7
2022-09-15T06:15:10.847Z,552.3
2022-09-15T06:16:12.942Z,552.2
2022-09-15T06:17:14.705Z,551.8
2022-09-15T06:18:16.527Z,551.7
2022-09-15T06:19:18.325Z,551.5
2022-09-15T06:20:19.855Z,551.1
2022-09-15T06:21:22.003Z,550.7
2022-09-15T06:22:23.538Z,550.1
2022-09-15T06:23:25.621Z,550
2022-09-15T06:24:27.233Z,549.8
2022-09-15T06:25:28.875Z,549.7
2022-09-15T06:26:30.798Z,550.1
2022-09-15T06:27:32.409Z,550.1
2022-09-15T06:28:34.363Z,550.6
2022-09-15T06:29:36.074Z,550.9
2022-09-15T06:30:37.637Z,550.9
2022-09-15T06:31:39.708Z,551.4
2022-09-15T06:32:48.793Z,551.2
2022-09-15T06:33:50.542Z,552.4
2022-09-15T06:34:52.166Z,553
2022-09-15T06:35:53.712Z,553.1
2022-09-15T06:36:55.350Z,552.9
2022-09-15T06:37:57.009Z,552.6
2022-09-15T06:38:58.749Z,552.6
2022-09-15T06:40:00.737Z,552.1
2022-09-15T06:41:02.463Z,551.6
2022-09-15T06:42:06.374Z,551.4
2022-09-15T06:43:08.107Z,551.5
2022-09-15T06:44:09.650Z,551.9
2022-09-15T06:45:11.305Z,552.3
2022-09-15T06:46:13.506Z,552.4
2022-09-15T06:47:15.391Z,552.5
2022-09-15T06:48:25.667Z,552.5
2022-09-15T06:49:27.345Z,552.5
2022-09-15T06:50:28.984Z,552.1
2022-09-15T06:51:30.634Z,552
2022-09-15T06:52:32.162Z,551.6
2022-09-15T06:53:33.847Z,551.4
2022-09-15T06:54:35.420Z,551.7
2022-09-15T06:55:36.947Z,551.5
2022-09-15T06:56:38.954Z,551.7
2022-09-15T06:57:40.487Z,551.5
2022-09-15T06:58:42.609Z,551.4
2022-09-15T06:59:44.514Z,551.8
2022-09-15T07:00:46.191Z,551.8
2022-09-15T07:01:48.239Z,551.4
2022-09-15T07:02:50.609Z,551.1
2022-09-15T07:03:52.686Z,551.3
2022-09-15T07:04:54.310Z,550.9
2022-09-15T07:05:55.998Z,550.4
2022-09-15T07:06:57.667Z,550.2
2022-09-15T07:07:59.301Z,549.9
2022-09-15T07:09:02.019Z,549.6
2022-09-15T07:10:03.746Z,549.4
2022-09-15T07:11:05.373Z,550.2
2022-09-15T07:12:06.971Z,549.6
2022-09-15T07:13:08.519Z,549.5
2022-09-15T07:14:10.194Z,548.6
2022-09-15T07:15:11.919Z,548.3
2022-09-15T07:16:14.141Z,547.9
2022-09-15T07:17:15.885Z,548
2022-09-15T07:18:17.467Z,547.5
2022-09-15T07:19:19.234Z,547.8
2022-09-15T07:20:20.773Z,547.3
2022-09-15T07:21:22.323Z,547.7
2022-09-15T07:22:23.873Z,547.9
2022-09-15T07:23:25.429Z,547.3
2022-09-15T07:24:27.059Z,547.1
2022-09-15T07:25:28.637Z,547.5
2022-09-15T07:26:30.383Z,547.7
2022-09-15T07:27:32.086Z,547.7
2022-09-15T07:28:33.740Z,547.8
2022-09-15T07:29:38.423Z,547.2
2022-09-15T07:30:40.225Z,546.4
2022-09-15T07:31:42.339Z,546.3
2022-09-15T07:32:44.046Z,546.7
2022-09-15T07:33:45.869Z,546.7
2022-09-15T07:34:47.593Z,545.7
2022-09-15T07:35:49.131Z,545.2
2022-09-15T07:36:50.788Z,545.1
2022-09-15T07:37:52.505Z,544.8
2022-09-15T07:38:54.320Z,544.2
2022-09-15T07:39:56.365Z,544
2022-09-15T07:40:58.056Z,543.9
2022-09-15T07:41:59.808Z,544.2
2022-09-15T07:43:01.353Z,544.5
2022-09-15T07:44:02.992Z,544.1
2022-09-15T07:45:04.620Z,544
2022-09-15T07:46:06.616Z,544.5
2022-09-15T07:47:08.338Z,544.5
2022-09-15T07:48:09.889Z,544.9
2022-09-15T07:49:11.565Z,545.1
2022-09-15T07:50:13.332Z,545.3
2022-09-15T07:51:14.868Z,545.1
2022-09-15T07:52:16.584Z,545.4
2022-09-15T07:53:18.226Z,545.3
2022-09-15T07:54:23.648Z,545.7
2022-09-15T07:55:25.261Z,546.3
2022-09-15T07:56:26.821Z,546.6
2022-09-15T07:57:28.425Z,546.4
2022-09-15T07:58:30.125Z,546.8
2022-09-15T07:59:31.769Z,546.7
2022-09-15T08:00:33.747Z,547.4
2022-09-15T08:01:35.896Z,547.2
2022-09-15T08:02:37.727Z,547.5
2022-09-15T08:03:39.290Z,547.3
2022-09-15T08:04:41.017Z,547.5
2022-09-15T08:05:46.560Z,546.6
2022-09-15T08:06:48.107Z,546.8
2022-09-15T08:07:49.846Z,546.7
2022-09-15T08:09:01.317Z,546.6
2022-09-15T08:10:02.988Z,546.5
2022-09-15T08:11:04.685Z,546.5
2022-09-15T08:12:06.290Z,546.7
2022-09-15T08:13:07.828Z,547.3
2022-09-15T08:14:09.492Z,547.3
2022-09-15T08:15:11.118Z,546.8
2022-09-15T08:16:13.203Z,546.7
2022-09-15T08:17:15.589Z,546.8
2022-09-15T08:18:17.359Z,546.8
2022-09-15T08:19:19.150Z,547.1
2022-09-15T08:20:21.403Z,546.9
2022-09-15T08:21:23.341Z,546.5
2022-09-15T08:22:24.982Z,546.9
2022-09-15T08:23:26.637Z,546.7
2022-09-15T08:24:28.146Z,546.8
2022-09-15T08:25:29.932Z,546.9
2022-09-15T08:26:31.579Z,547.3
2022-09-15T08:27:33.225Z,547.4
2022-09-15T08:28:34.942Z,547
2022-09-15T08:29:36.543Z,547.5
2022-09-15T08:30:38.097Z,547.7
2022-09-15T08:31:40.146Z,548.4
2022-09-15T08:32:41.872Z,548.8
2022-09-15T08:33:46.566Z,549.4
2022-09-15T08:34:48.239Z,549.7
2022-09-15T08:35:49.930Z,549.8
2022-09-15T08:36:51.705Z,549.6
2022-09-15T08:37:53.265Z,549.6
2022-09-15T08:38:54.806Z,549.5
2022-09-15T08:39:56.736Z,549.9
2022-09-15T08:40:58.381Z,549.7
2022-09-15T08:42:00.224Z,549.8
2022-09-15T08:43:01.762Z,549.8
2022-09-15T08:44:03.614Z,549.7
2022-09-15T08:45:05.169Z,549.8
2022-09-15T08:46:07.029Z,550.8
2022-09-15T08:47:08.848Z,550.6
2022-09-15T08:48:10.516Z,550
2022-09-15T08:49:12.148Z,550.2
2022-09-15T08:50:13.877Z,550.3
2022-09-15T08:51:15.647Z,550.2
2022-09-15T08:52:17.307Z,550.4
2022-09-15T08:53:18.944Z,550.5
2022-09-15T08:54:20.508Z,550.7
2022-09-15T08:55:22.108Z,550.9
2022-09-15T08:56:23.696Z,550.6
2022-09-15T08:57:25.387Z,550.6
2022-09-15T08:58:26.995Z,551
2022-09-15T08:59:28.579Z,550.7
2022-09-15T09:00:30.267Z,550.5
2022-09-15T09:01:32.417Z,550.9
2022-09-15T09:02:34.640Z,550.7
2022-09-15T09:03:36.366Z,551.3
2022-09-15T09:04:38.149Z,551.3
2022-09-15T09:05:39.730Z,550.8
2022-09-15T09:06:41.429Z,551.4
2022-09-15T09:07:43.095Z,552.1
2022-09-15T09:08:45.476Z,552.4
2022-09-15T09:09:47.194Z,552.4
2022-09-15T09:10:48.839Z,552.3
2022-09-15T09:11:50.385Z,552.1
2022-09-15T09:12:52.031Z,552
2022-09-15T09:13:53.978Z,552.2
2022-09-15T09:14:55.620Z,552
2022-09-15T09:15:57.698Z,551.9
2022-09-15T09:16:59.370Z,552.1
2022-09-15T09:18:01.039Z,552.2
2022-09-15T09:19:02.668Z,552.3
2022-09-15T09:20:04.384Z,552.6
2022-09-15T09:21:05.971Z,552.3
2022-09-15T09:22:07.704Z,552.9
2022-09-15T09:23:09.406Z,552.9
2022-09-15T09:24:10.950Z,553.1
2022-09-15T09:25:28.984Z,553
2022-09-15T09:26:30.523Z,553.2
2022-09-15T09:27:32.065Z,553.5
2022-09-15T09:28:33.675Z,553.6
2022-09-15T09:29:35.374Z,553.8
2022-09-15T09:30:37.277Z,554.1
2022-09-15T09:31:38.964Z,554.3
2022-09-15T09:32:40.592Z,554.3
2022-09-15T09:33:48.884Z,554.2
2022-09-15T09:34:50.746Z,554.1
2022-09-15T09:35:52.394Z,554.5
2022-09-15T09:36:54.064Z,554.8
2022-09-15T09:37:55.791Z,554.7
2022-09-15T09:38:57.458Z,555.1
2022-09-15T09:39:59.462Z,555.2
2022-09-15T09:41:03.474Z,555.7
2022-09-15T09:42:05.174Z,556.1
2022-09-15T09:43:06.896Z,556
2022-09-15T09:44:08.494Z,556
2022-09-15T09:45:10.175Z,555.8
2022-09-15T09:46:12.093Z,555.6
2022-09-15T09:47:13.768Z,555.9
2022-09-15T09:48:15.594Z,556
2022-09-15T09:49:17.207Z,556.3
2022-09-15T09:50:19.122Z,555.9
2022-09-15T09:51:20.973Z,555.9
2022-09-15T09:52:22.618Z,555.9
2022-09-15T09:53:24.351Z,555.9
2022-09-15T09:54:26.109Z,556
2022-09-15T09:55:27.752Z,556
2022-09-15T09:56:29.563Z,556.3
2022-09-15T09:57:31.106Z,556.3
2022-09-15T09:58:32.671Z,556.3
2022-09-15T09:59:34.369Z,556.2
2022-09-15T10:00:36.077Z,556
2022-09-15T10:01:38.608Z,556.1
2022-09-15T10:02:40.331Z,556.1
2022-09-15T10:03:41.953Z,555.6
2022-09-15T10:04:43.959Z,556
2022-09-15T10:05:45.627Z,556.1
2022-09-15T10:06:47.381Z,556.5
2022-09-15T10:07:49.095Z,556.8
2022-09-15T10:08:51.208Z,556.8
2022-09-15T10:09:53.242Z,556.7
2022-09-15T10:10:54.763Z,557
2022-09-15T10:11:56.363Z,557.3
2022-09-15T10:12:57.998Z,557.6
2022-09-15T10:13:59.596Z,558
2022-09-15T10:15:01.142Z,557.7
2022-09-15T10:16:02.923Z,557.5
2022-09-15T10:17:04.902Z,557.8
2022-09-15T10:18:06.528Z,557.7
2022-09-15T10:19:08.062Z,558.2
2022-09-15T10:20:09.617Z,558.1
2022-09-15T10:21:11.248Z,557.8
2022-09-15T10:22:12.979Z,557.7
2022-09-15T10:23:14.722Z,557.7
2022-09-15T10:24:18.696Z,557.1
2022-09-15T10:25:20.572Z,557.2
2022-09-15T10:26:22.225Z,557.1
2022-09-15T10:27:23.797Z,557.3
2022-09-15T10:28:25.451Z,557.2
2022-09-15T10:29:27.338Z,557.3
2022-09-15T10:30:28.993Z,557.4
2022-09-15T10:31:31.124Z,557.6
2022-09-15T10:32:33.027Z,557.8
2022-09-15T10:33:34.601Z,557.9
2022-09-15T10:34:36.141Z,558.1
2022-09-15T10:35:37.881Z,558.3
2022-09-15T10:36:39.419Z,558.3
2022-09-15T10:37:41.139Z,558.9
2022-09-15T10:38:43.152Z,559.1
2022-09-15T10:39:45.242Z,558.8
2022-09-15T10:40:47.020Z,558.8
2022-09-15T10:41:48.567Z,558.6
2022-09-15T10:42:50.106Z,558.9
2022-09-15T10:43:51.837Z,558.9
2022-09-15T10:44:53.610Z,558.9
2022-09-15T10:45:55.643Z,559.4
2022-09-15T10:46:57.289Z,559.8
2022-09-15T10:47:58.936Z,560.2
2022-09-15T10:49:00.498Z,559.8
2022-09-15T10:50:02.324Z,560.1
2022-09-15T10:51:04.109Z,560
2022-09-15T10:52:05.710Z,560
2022-09-15T10:53:07.322Z,560.1
2022-09-15T10:54:08.882Z,560.2
2022-09-15T10:55:10.862Z,560.3
2022-09-15T10:56:12.619Z,560.4
2022-09-15T10:57:14.657Z,560.7
2022-09-15T10:58:16.311Z,560.8
2022-09-15T10:59:18.439Z,560.8
2022-09-15T11:00:20.116Z,560.6
2022-09-15T11:01:22.903Z,560.8
2022-09-15T11:02:25.010Z,561
2022-09-15T11:03:26.910Z,561.3
2022-09-15T11:04:28.474Z,561.1
2022-09-15T11:05:30.559Z,561.7
2022-09-15T11:06:32.134Z,561.8
2022-09-15T11:07:33.839Z,561.7
2022-09-15T11:08:35.535Z,561.7
2022-09-15T11:09:37.297Z,561.4
2022-09-15T11:10:39.070Z,561.3
2022-09-15T11:11:40.703Z,561.7
2022-09-15T11:12:42.503Z,561.4
2022-09-15T11:13:44.325Z,561.3
2022-09-15T11:14:45.865Z,561.3
2022-09-15T11:15:47.855Z,561.8
2022-09-15T11:16:49.567Z,562.1
2022-09-15T11:17:51.173Z,562.8
2022-09-15T11:18:52.709Z,562.5
2022-09-15T11:19:54.401Z,562.5
2022-09-15T11:20:55.954Z,562.8
2022-09-15T11:21:57.599Z,562.9
2022-09-15T11:22:59.255Z,562.9
2022-09-15T11:24:01.011Z,562.9
2022-09-15T11:25:02.714Z,563
2022-09-15T11:26:04.406Z,563.2
2022-09-15T11:27:06.160Z,563.2
2022-09-15T11:28:07.788Z,563.2
2022-09-15T11:29:09.478Z,563.5
2022-09-15T11:30:11.292Z,563.2
2022-09-15T11:31:13.317Z,563.6
2022-09-15T11:32:15.092Z,563.8
2022-09-15T11:33:16.643Z,563.9
2022-09-15T11:34:18.203Z,563.9
2022-09-15T11:35:19.834Z,563.8
2022-09-15T11:36:21.404Z,563.8
2022-09-15T11:37:22.950Z,563.5
2022-09-15T11:38:24.517Z,563.7
2022-09-15T11:39:26.213Z,563.8
2022-09-15T11:40:28.317Z,564.1
2022-09-15T11:41:30.114Z,564.3
2022-09-15T11:42:31.783Z,564.1
2022-09-15T11:43:33.334Z,564.1
2022-09-15T11:44:34.923Z,564
2022-09-15T11:45:36.585Z,564.3
2022-09-15T11:46:38.439Z,564.1
2022-09-15T11:47:40.182Z,564
2022-09-15T11:48:41.953Z,564.3
2022-09-15T11:49:43.677Z,564.4
2022-09-15T11:50:45.431Z,564.5
2022-09-15T11:51:47.082Z,564.9
2022-09-15T11:52:48.626Z,564.8
2022-09-15T11:53:50.189Z,564.8
2022-09-15T11:54:51.912Z,565.1
2022-09-15T11:55:53.720Z,565.1
2022-09-15T11:56:55.343Z,564.9
2022-09-15T11:57:57.068Z,565.2
2022-09-15T11:58:58.774Z,565.3
2022-09-15T12:00:00.422Z,566.1
2022-09-15T12:01:02.091Z,566.1
2022-09-15T12:02:04.335Z,566.4
2022-09-15T12:03:06.440Z,566.5
2022-09-15T12:04:08.142Z,566.5
2022-09-15T12:05:09.834Z,566.7
2022-09-15T12:06:11.520Z,566.8
2022-09-15T12:07:15.217Z,566.9
2022-09-15T12:08:16.878Z,567
2022-09-15T12:09:18.568Z,567.2
2022-09-15T12:10:20.267Z,567
2022-09-15T12:11:22.039Z,567.3
2022-09-15T12:12:31.647Z,567.7
2022-09-15T12:13:35.973Z,568.2
2022-09-15T12:14:37.526Z,568.3
2022-09-15T12:15:39.547Z,568.5
2022-09-15T12:16:41.179Z,568.6
2022-09-15T12:17:42.772Z,568.8
2022-09-15T12:18:47.579Z,569.5
2022-09-15T12:19:49.408Z,569.3
2022-09-15T12:20:50.954Z,569.6
2022-09-15T12:21:53.830Z,569.7
2022-09-15T12:22:55.508Z,569.8
2022-09-15T12:23:57.041Z,569.9
2022-09-15T12:25:01.941Z,570.2
2022-09-15T12:26:03.690Z,569.9
2022-09-15T12:27:05.390Z,570.2
2022-09-15T12:28:07.114Z,570.6
2022-09-15T12:29:08.739Z,570
2022-09-15T12:30:10.340Z,570.1
2022-09-15T12:31:12.383Z,570
2022-09-15T12:32:14.117Z,570
2022-09-15T12:33:15.755Z,570.1
2022-09-15T12:34:17.312Z,570.2
2022-09-15T12:35:18.948Z,570.3
2022-09-15T12:36:20.763Z,570.5
2022-09-15T12:37:22.535Z,570.4
2022-09-15T12:38:24.667Z,570.9
2022-09-15T12:39:26.621Z,571.2
2022-09-15T12:40:29.105Z,571.5
2022-09-15T12:41:32.033Z,571.6
2022-09-15T12:42:33.855Z,572
2022-09-15T12:43:35.756Z,571.8
2022-09-15T12:44:37.913Z,571.6
2022-09-15T12:45:39.777Z,572.2
2022-09-15T12:46:41.922Z,572.4
2022-09-15T12:47:43.873Z,572.2
2022-09-15T12:48:48.182Z,572.3
2022-09-15T12:49:50.129Z,572.5
2022-09-15T12:50:51.980Z,572.5
2022-09-15T12:51:53.762Z,572.8
2022-09-15T12:52:55.582Z,573.2
2022-09-15T12:53:57.344Z,573.1
2022-09-15T12:54:59.012Z,573
2022-09-15T12:56:00.682Z,573
2022-09-15T12:57:02.328Z,573.1
2022-09-15T12:58:04.164Z,572.8
2022-09-15T12:59:07.711Z,572.8
2022-09-15T13:00:09.413Z,573
2022-09-15T13:01:19.898Z,572.7
2022-09-15T13:02:22.221Z,572.5
2022-09-15T13:03:24.452Z,572.8
2022-09-15T13:04:26.067Z,573.2
2022-09-15T13:05:27.615Z,573.2
2022-09-15T13:06:29.398Z,572.7
2022-09-15T13:07:31.117Z,573.1
2022-09-15T13:08:32.750Z,573.3
2022-09-15T13:09:34.513Z,573.5
2022-09-15T13:10:36.060Z,573.6
2022-09-15T13:11:38.890Z,574.1
2022-09-15T13:12:40.658Z,574
2022-09-15T13:13:42.627Z,573.7
2022-09-15T13:14:44.382Z,573.8
2022-09-15T13:15:46.475Z,573.5
2022-09-15T13:16:48.151Z,573.6
2022-09-15T13:17:49.727Z,573.9
2022-09-15T13:18:51.438Z,573.9
2022-09-15T13:19:52.982Z,573.8
2022-09-15T13:20:54.622Z,573.8
2022-09-15T13:21:59.171Z,573.6
2022-09-15T13:23:00.787Z,573.6